Time;durP1;ratioP1;P1;durP2;ratioP2;P2;SDS_P1;SDS_P2;PMS_P1;PMS_P2;Temp;Humidity;BMP_temperature;BMP_pressure;BME280_temperature;BME280_humidity;BME280_pressure;Samples;Min_cycle;Max_cycle;Signal;HPM_P1;HPM_P2
2023/02/19 00:01:15;;;;;;;;;;;;;;;18.46;40.51;97856.94;5069344;28;20272;-89
2023/02/19 00:03:42;;;;;;;;;;;;;;;19.25;39.18;97875.66;5077606;28;19966;-90
2023/02/19 00:06:09;;;;;;;;;;;;;;;19.50;38.81;97872.75;5085868;28;19924;-89
2023/02/19 00:08:36;;;;;;;;;;;;;;;19.18;38.98;97870.13;5086093;28;19920;-89
2023/02/19 00:11:02;;;;;;;;;;;;;;;19.92;37.94;97867.63;5070594;28;19921;-89
2023/02/19 00:13:29;;;;;;;;;;;;;;;20.26;36.98;97842.66;5086494;28;19943;-89
2023/02/19 00:15:55;;;;;;;;;;;;;;;20.54;36.42;97858.28;5082737;28;19928;-89
2023/02/19 00:18:22;;;;;;;;;;;;;;;20.25;36.57;97851.44;5069125;28;19920;-89
2023/02/19 00:20:48;;;;;;;;;;;;;;;19.73;37.63;97867.38;5083870;28;20398;-87
2023/02/19 00:23:14;;;;;;;;;;;;;;;20.17;37.11;97859.03;5087563;28;19928;-88
2023/02/19 00:25:40;;;;;;;;;;;;;;;20.26;36.78;97858.56;5083457;28;19935;-88
2023/02/19 00:28:06;;;;;;;;;;;;;;;19.92;37.27;97858.47;5086313;28;21062;-88
2023/02/19 00:30:32;;;;;;;;;;;;;;;20.80;35.91;97862.34;5082851;28;19936;-89
2023/02/19 00:32:58;;;;;;;;;;;;;;;19.55;37.71;97861.97;5095096;28;19912;-87
2023/02/19 00:35:24;;;;;;;;;;;;;;;20.35;36.58;97847.75;5095104;28;19916;-88
2023/02/19 00:37:50;;;;;;;;;;;;;;;20.22;36.75;97847.47;5095956;28;19922;-87
2023/02/19 00:40:17;;;;;;;;;;;;;;;19.80;37.17;97840.28;5092407;28;19917;-87
2023/02/19 00:42:43;;;;;;;;;;;;;;;19.73;37.15;97850.69;5090175;28;19963;-87
2023/02/19 00:45:09;;;;;;;;;;;;;;;20.55;35.61;97843.13;5095796;28;19965;-87
2023/02/19 00:47:35;;;;;;;;;;;;;;;20.55;35.51;97843.13;5092024;28;19924;-88
2023/02/19 00:50:01;;;;;;;;;;;;;;;20.68;35.35;97833.81;5081767;28;19921;-88
2023/02/19 00:52:27;;;;;;;;;;;;;;;21.55;33.58;97830.22;5076684;28;20368;-88
2023/02/19 00:54:53;;;;;;;;;;;;;;;21.89;32.82;97832.91;5087383;28;20384;-88
2023/02/19 00:57:19;;;;;;;;;;;;;;;21.51;33.82;97832.31;5088625;28;19926;-88
2023/02/19 00:59:45;;;;;;;;;;;;;;;21.80;32.53;97836.19;5104162;28;20435;-89
2023/02/19 01:02:11;;;;;;;;;;;;;;;20.83;34.55;97837.22;5108973;28;20011;-89
2023/02/19 01:04:37;;;;;;;;;;;;;;;20.31;34.71;97836.63;5083864;28;19916;-88
2023/02/19 01:07:03;;;;;;;;;;;;;;;20.45;34.59;97827.31;5079295;28;19927;-90
2023/02/19 01:09:29;;;;;;;;;;;;;;;20.27;35.74;97819.16;5093497;28;19927;-89
2023/02/19 01:11:55;;;;;;;;;;;;;;;20.63;34.60;97825.13;5092119;28;19924;-89
2023/02/19 01:14:21;;;;;;;;;;;;;;;19.95;35.57;97816.63;5092997;28;19927;-90
2023/02/19 01:16:47;;;;;;;;;;;;;;;19.55;36.94;97828.56;5092298;28;19932;-89
2023/02/19 01:19:13;;;;;;;;;;;;;;;19.71;36.27;97823.25;5088174;28;19973;-89
2023/02/19 01:21:39;;;;;;;;;;;;;;;20.36;35.27;97821.44;5086216;28;19920;-90
2023/02/19 01:24:05;;;;;;;;;;;;;;;20.54;34.10;97814.44;5076254;28;20379;-89
2023/02/19 01:26:32;;;;;;;;;;;;;;;21.04;34.00;97816.59;5075724;28;20418;-89
2023/02/19 01:28:58;;;;;;;;;;;;;;;20.72;34.31;97811.47;5083956;28;19928;-90
2023/02/19 01:31:24;;;;;;;;;;;;;;;21.27;33.39;97811.13;5094170;28;19920;-91
2023/02/19 01:33:54;;;;;;;;;;;;;;;21.63;32.92;97808.56;5094071;28;19920;-91
2023/02/19 01:36:20;;;;;;;;;;;;;;;21.42;33.36;97804.13;5092049;28;20003;-90
2023/02/19 01:38:46;;;;;;;;;;;;;;;21.04;33.69;97808.22;5093484;28;19943;-91
2023/02/19 01:41:14;;;;;;;;;;;;;;;21.04;34.55;97811.84;5093959;28;20423;-90
2023/02/19 01:43:54;;;;;;;;;;;;;;;21.14;34.15;97810.88;5096145;28;20302;-90
2023/02/19 01:46:23;;;;;;;;;;;;;;;21.59;32.67;97808.59;5091331;28;20680;-90
2023/02/19 01:48:49;;;;;;;;;;;;;;;22.89;31.15;97813.03;5090396;28;20011;-91
2023/02/19 01:51:17;;;;;;;;;;;;;;;22.85;31.18;97810.28;5097426;28;19956;-89
2023/02/19 01:53:50;;;;;;;;;;;;;;;22.61;31.67;97809.59;5093969;28;20020;-89
2023/02/19 01:56:17;;;;;;;;;;;;;;;21.80;32.61;97813.03;5092091;28;19920;-89
2023/02/19 01:58:43;;;;;;;;;;;;;;;22.18;32.29;97808.81;5094510;28;19920;-89
2023/02/19 02:01:10;;;;;;;;;;;;;;;22.16;32.27;97807.66;5087548;28;20036;-89
2023/02/19 02:03:37;;;;;;;;;;;;;;;22.09;31.95;97791.81;5093683;28;19924;-89
2023/02/19 02:06:21;;;;;;;;;;;;;;;21.52;33.48;97800.34;5093016;28;20376;-89
2023/02/19 02:11:37;;;;;;;;;;;;;;;22.47;31.76;97800.69;5087314;28;20403;-89
2023/02/19 02:14:03;;;;;;;;;;;;;;;22.71;31.22;97802.19;5074079;28;19921;-90
2023/02/19 02:16:46;;;;;;;;;;;;;;;22.96;30.51;97799.69;5078151;28;19977;-90
2023/02/19 02:19:12;;;;;;;;;;;;;;;22.15;31.89;97794.91;5092344;28;19927;-89
2023/02/19 02:21:50;;;;;;;;;;;;;;;22.99;30.97;97803.59;5085888;28;19921;-89
2023/02/19 02:24:45;;;;;;;;;;;;;;;21.56;33.17;97798.31;5097777;28;19920;-90
2023/02/19 02:27:20;;;;;;;;;;;;;;;21.51;33.67;97800.78;4993601;28;19929;-90
2023/02/19 02:29:52;;;;;;;;;;;;;;;21.10;33.87;97801.78;5093757;28;19924;-90
2023/02/19 02:32:20;;;;;;;;;;;;;;;21.11;34.11;97800.59;5081276;28;20300;-93
2023/02/19 02:34:49;;;;;;;;;;;;;;;22.24;32.02;97792.34;5075038;28;19972;-90
2023/02/19 02:37:15;;;;;;;;;;;;;;;21.71;32.70;97787.66;5087051;28;19920;-92
2023/02/19 02:39:43;;;;;;;;;;;;;;;21.75;32.83;97788.41;5084020;28;19920;-91
2023/02/19 02:42:30;;;;;;;;;;;;;;;21.82;32.80;97782.69;5097423;28;19920;-90
2023/02/19 02:47:45;;;;;;;;;;;;;;;22.86;31.51;97789.50;5096582;28;19946;-89
2023/02/19 02:50:15;;;;;;;;;;;;;;;22.88;31.33;97781.44;5086723;28;19921;-89
2023/02/19 02:55:28;;;;;;;;;;;;;;;22.47;31.35;97773.50;5094697;28;19962;-89
2023/02/19 02:57:55;;;;;;;;;;;;;;;22.59;31.48;97777.66;5093835;28;19983;-89
2023/02/19 03:00:22;;;;;;;;;;;;;;;23.57;30.41;97779.47;5088411;28;20038;-90
2023/02/19 03:02:48;;;;;;;;;;;;;;;22.58;31.49;97774.06;5094470;28;19920;-89
2023/02/19 03:08:11;;;;;;;;;;;;;;;22.94;31.24;97773.31;5093400;28;19967;-90
2023/02/19 03:10:40;;;;;;;;;;;;;;;22.80;31.43;97768.03;5079032;28;19928;-89
2023/02/19 03:21:27;;;;;;;;;;;;;;;22.82;31.09;97766.38;5081290;28;20430;-88
2023/02/19 03:26:41;;;;;;;;;;;;;;;23.61;29.83;97750.13;5076087;28;19973;-88
2023/02/19 03:29:29;;;;;;;;;;;;;;;23.49;30.05;97748.03;5082366;28;19920;-89
2023/02/19 03:32:00;;;;;;;;;;;;;;;23.80;29.79;97740.84;5079531;28;20004;-89
2023/02/19 03:34:32;;;;;;;;;;;;;;;22.83;30.94;97745.56;5073648;28;19920;-88
2023/02/19 03:37:11;;;;;;;;;;;;;;;23.62;29.76;97736.91;5075718;28;19943;-88
2023/02/19 03:39:43;;;;;;;;;;;;;;;23.29;30.26;97738.91;5087487;28;19951;-88
2023/02/19 03:42:31;;;;;;;;;;;;;;;23.85;29.38;97729.06;5077982;28;19920;-87
2023/02/19 03:45:03;;;;;;;;;;;;;;;23.89;29.51;97729.78;5078754;28;21003;-88
2023/02/19 03:47:34;;;;;;;;;;;;;;;23.88;29.35;97733.81;5089900;28;20300;-88
2023/02/19 03:50:03;;;;;;;;;;;;;;;23.95;29.21;97725.19;5086875;28;19924;-88
2023/02/19 03:52:48;;;;;;;;;;;;;;;24.33;28.60;97719.75;5082906;28;20383;-88
2023/02/19 03:55:14;;;;;;;;;;;;;;;23.91;29.62;97720.91;5081917;28;19992;-88
2023/02/19 03:57:56;;;;;;;;;;;;;;;22.93;31.30;97715.75;5089374;28;19975;-88
2023/02/19 04:00:26;;;;;;;;;;;;;;;23.29;30.38;97730.50;5074875;28;19924;-88
2023/02/19 04:03:13;;;;;;;;;;;;;;;22.72;31.39;97730.22;5056085;28;19916;-87
2023/02/19 04:05:43;;;;;;;;;;;;;;;22.96;31.15;97720.47;5059440;28;20010;-87
2023/02/19 04:08:15;;;;;;;;;;;;;;;21.66;32.95;97712.69;5080263;28;19964;-88
2023/02/19 04:10:42;;;;;;;;;;;;;;;22.90;31.29;97720.19;5091251;28;19927;-87
2023/02/19 04:13:13;;;;;;;;;;;;;;;22.90;31.12;97717.41;5087133;28;20006;-88
2023/02/19 04:15:40;;;;;;;;;;;;;;;22.90;31.17;97725.81;5093587;28;19931;-88
2023/02/19 04:18:08;;;;;;;;;;;;;;;23.42;30.28;97722.19;5086314;28;19932;-88
2023/02/19 04:20:39;;;;;;;;;;;;;;;21.66;33.15;97719.09;5089997;28;19920;-87
2023/02/19 04:23:05;;;;;;;;;;;;;;;21.60;33.36;97714.41;5090609;28;19920;-87
2023/02/19 04:25:32;;;;;;;;;;;;;;;21.55;33.61;97710.09;5089423;28;20284;-87
2023/02/19 04:27:58;;;;;;;;;;;;;;;21.53;33.93;97700.56;5085458;28;20435;-86
2023/02/19 04:30:24;;;;;;;;;;;;;;;22.11;32.39;97704.69;5087535;28;19990;-86
2023/02/19 04:32:50;;;;;;;;;;;;;;;21.44;33.75;97703.13;5088327;28;19956;-86
2023/02/19 04:35:16;;;;;;;;;;;;;;;22.14;32.69;97693.44;5082473;28;19959;-85
2023/02/19 04:37:42;;;;;;;;;;;;;;;22.39;32.26;97690.13;5090543;28;20333;-86
2023/02/19 04:40:08;;;;;;;;;;;;;;;22.88;30.85;97679.88;5095398;28;19938;-86
2023/02/19 04:42:34;;;;;;;;;;;;;;;22.02;32.39;97689.28;5086127;28;19924;-86
2023/02/19 04:45:01;;;;;;;;;;;;;;;22.25;31.99;97684.84;5093249;28;19912;-86
2023/02/19 04:47:27;;;;;;;;;;;;;;;21.93;32.86;97674.31;5101118;28;20337;-86
2023/02/19 04:49:53;;;;;;;;;;;;;;;21.07;34.61;97687.41;5089258;28;20331;-86
2023/02/19 04:52:19;;;;;;;;;;;;;;;21.34;33.80;97688.94;5094385;28;19924;-86
2023/02/19 04:54:45;;;;;;;;;;;;;;;22.37;32.19;97690.56;5077397;28;19920;-86
2023/02/19 04:57:11;;;;;;;;;;;;;;;22.86;31.59;97694.31;5092935;28;19927;-86
2023/02/19 04:59:37;;;;;;;;;;;;;;;22.71;31.24;97692.28;5084641;28;19920;-86
2023/02/19 05:02:03;;;;;;;;;;;;;;;23.33;30.79;97692.78;5102206;28;20356;-86
2023/02/19 05:04:29;;;;;;;;;;;;;;;24.42;28.88;97685.44;5089897;28;19920;-86
2023/02/19 05:06:55;;;;;;;;;;;;;;;23.80;29.85;97692.38;5091426;28;19927;-86
2023/02/19 05:09:21;;;;;;;;;;;;;;;23.43;30.38;97690.97;5091446;28;19935;-86
2023/02/19 05:11:47;;;;;;;;;;;;;;;23.83;30.17;97683.88;5081489;28;19920;-85
2023/02/19 05:14:13;;;;;;;;;;;;;;;23.30;30.43;97678.84;5103609;28;19972;-86
2023/02/19 05:16:39;;;;;;;;;;;;;;;22.27;31.95;97672.00;5090577;28;20286;-85
2023/02/19 05:19:05;;;;;;;;;;;;;;;22.21;32.42;97675.75;5092136;28;19929;-86
2023/02/19 05:21:31;;;;;;;;;;;;;;;22.06;32.26;97666.84;5096520;28;19916;-86
2023/02/19 05:23:57;;;;;;;;;;;;;;;22.99;30.98;97663.59;5092083;28;19924;-86
2023/02/19 05:26:23;;;;;;;;;;;;;;;23.21;30.29;97659.84;5092839;28;19920;-86
2023/02/19 05:28:51;;;;;;;;;;;;;;;23.89;29.45;97656.09;5095336;28;20398;-86
2023/02/19 05:31:17;;;;;;;;;;;;;;;23.85;29.43;97652.59;5085496;28;19928;-86
2023/02/19 05:33:44;;;;;;;;;;;;;;;23.61;30.03;97656.84;5094644;28;19920;-86
2023/02/19 05:36:12;;;;;;;;;;;;;;;24.42;28.59;97655.34;5095121;28;19916;-86
2023/02/19 05:38:39;;;;;;;;;;;;;;;24.12;28.95;97650.25;5095499;28;19924;-86
2023/02/19 05:41:06;;;;;;;;;;;;;;;25.32;27.47;97646.50;5096015;28;20011;-86
2023/02/19 05:43:32;;;;;;;;;;;;;;;24.83;27.91;97639.69;5094952;28;19955;-86
2023/02/19 05:45:58;;;;;;;;;;;;;;;24.74;28.31;97627.06;5090207;28;19967;-85
2023/02/19 05:48:24;;;;;;;;;;;;;;;25.36;27.75;97624.69;5092631;28;19956;-85
2023/02/19 05:50:50;;;;;;;;;;;;;;;25.52;27.03;97609.69;5095601;28;20446;-87
2023/02/19 05:53:16;;;;;;;;;;;;;;;26.10;26.38;97610.81;5094891;28;19912;-84
2023/02/19 05:55:42;;;;;;;;;;;;;;;25.73;26.93;97615.34;5093468;28;19966;-85
2023/02/19 05:58:08;;;;;;;;;;;;;;;26.11;26.40;97612.38;5076514;28;19923;-86
2023/02/19 06:00:34;;;;;;;;;;;;;;;26.18;26.21;97623.38;5089625;28;19981;-87
2023/02/19 06:03:00;;;;;;;;;;;;;;;26.45;25.88;97625.56;5091523;28;19920;-87
2023/02/19 06:05:26;;;;;;;;;;;;;;;24.77;27.86;97631.03;5090097;28;20379;-87
2023/02/19 06:07:52;;;;;;;;;;;;;;;25.40;27.46;97631.75;5092488;28;20064;-88
2023/02/19 06:10:18;;;;;;;;;;;;;;;25.55;26.83;97634.88;5086462;28;19920;-87
2023/02/19 06:12:44;;;;;;;;;;;;;;;25.88;26.80;97640.94;5085161;28;19931;-87
2023/02/19 06:15:10;;;;;;;;;;;;;;;25.56;27.03;97642.06;5089453;28;19928;-88
2023/02/19 06:17:37;;;;;;;;;;;;;;;25.61;27.28;97644.31;5106369;28;19924;-88
2023/02/19 06:20:03;;;;;;;;;;;;;;;25.88;26.79;97630.47;5079971;28;19927;-86
2023/02/19 06:22:29;;;;;;;;;;;;;;;25.57;27.50;97618.34;5086989;28;19924;-86
2023/02/19 06:24:55;;;;;;;;;;;;;;;26.17;26.48;97618.19;5074914;28;19921;-85
2023/02/19 06:27:21;;;;;;;;;;;;;;;26.61;26.30;97605.59;5080526;28;20398;-86
2023/02/19 06:29:47;;;;;;;;;;;;;;;26.54;25.99;97598.22;5093994;28;20004;-86
2023/02/19 06:32:13;;;;;;;;;;;;;;;26.60;25.88;97602.03;5090570;28;19977;-86
2023/02/19 06:34:39;;;;;;;;;;;;;;;26.42;26.12;97595.53;5091590;28;19921;-87
2023/02/19 06:37:05;;;;;;;;;;;;;;;26.54;26.00;97597.44;5086846;28;19998;-86
2023/02/19 06:39:31;;;;;;;;;;;;;;;26.35;26.07;97596.56;5091580;28;19924;-86
2023/02/19 06:41:57;;;;;;;;;;;;;;;26.22;26.53;97609.94;5091385;28;19993;-86
2023/02/19 06:44:24;;;;;;;;;;;;;;;26.14;26.80;97605.81;5086803;28;19943;-86
2023/02/19 06:46:50;;;;;;;;;;;;;;;26.48;26.45;97602.13;5085148;28;19931;-86
2023/02/19 06:49:16;;;;;;;;;;;;;;;26.19;26.43;97610.06;5090780;28;19974;-86
2023/02/19 06:51:42;;;;;;;;;;;;;;;26.34;26.55;97609.09;5089796;28;19920;-86
2023/02/19 06:54:08;;;;;;;;;;;;;;;25.65;27.28;97605.59;5085326;28;20391;-86
2023/02/19 06:56:36;;;;;;;;;;;;;;;25.93;27.33;97609.41;5089927;28;20518;-86
2023/02/19 06:59:03;;;;;;;;;;;;;;;26.46;26.53;97608.22;5077645;28;20062;-86
2023/02/19 07:01:30;;;;;;;;;;;;;;;26.58;26.17;97598.88;5080503;28;19951;-86
2023/02/19 07:03:57;;;;;;;;;;;;;;;27.00;25.76;97609.72;5085035;28;19920;-86
2023/02/19 07:06:24;;;;;;;;;;;;;;;27.43;25.31;97615.13;5089336;28;20438;-86
2023/02/19 07:08:51;;;;;;;;;;;;;;;27.55;25.50;97607.78;5085572;28;20346;-87
2023/02/19 07:11:17;;;;;;;;;;;;;;;27.47;25.23;97607.31;5082391;28;19924;-86
2023/02/19 07:13:43;;;;;;;;;;;;;;;27.19;25.65;97606.44;5091319;28;20335;-86
2023/02/19 07:16:10;;;;;;;;;;;;;;;26.54;26.07;97603.84;5090349;28;20344;-86
2023/02/19 07:18:37;;;;;;;;;;;;;;;25.18;28.39;97604.84;5086137;28;20296;-86
2023/02/19 07:21:04;;;;;;;;;;;;;;;24.64;29.16;97607.78;5084999;28;19917;-86
2023/02/19 07:23:30;;;;;;;;;;;;;;;23.51;30.48;97605.47;5080969;28;19921;-86
2023/02/19 07:25:57;;;;;;;;;;;;;;;24.09;29.61;97597.03;5080956;28;20303;-86
2023/02/19 07:28:23;;;;;;;;;;;;;;;24.29;29.33;97604.06;5084617;28;19920;-86
2023/02/19 07:30:49;;;;;;;;;;;;;;;24.20;29.70;97594.72;5088279;28;19921;-86
2023/02/19 07:33:15;;;;;;;;;;;;;;;24.38;29.48;97592.16;5079094;28;19974;-86
2023/02/19 07:35:48;;;;;;;;;;;;;;;24.05;29.69;97600.72;5089103;28;19916;-86
2023/02/19 07:38:15;;;;;;;;;;;;;;;23.53;30.67;97596.59;5080782;28;19932;-86
2023/02/19 07:40:41;;;;;;;;;;;;;;;23.78;30.96;97600.28;5086895;28;19924;-86
2023/02/19 07:43:07;;;;;;;;;;;;;;;23.89;30.26;97595.19;5081975;28;19920;-86
2023/02/19 07:45:33;;;;;;;;;;;;;;;25.10;28.46;97595.06;5090285;28;19931;-87
2023/02/19 07:47:59;;;;;;;;;;;;;;;25.53;28.08;97592.41;5088847;28;20359;-87
2023/02/19 07:50:25;;;;;;;;;;;;;;;25.95;27.43;97592.88;5076551;28;20327;-87
2023/02/19 07:52:52;;;;;;;;;;;;;;;26.15;27.35;97598.97;5081701;28;19920;-87
2023/02/19 07:55:18;;;;;;;;;;;;;;;24.57;29.81;97614.41;5083328;28;19935;-85
2023/02/19 07:57:44;;;;;;;;;;;;;;;22.80;32.66;97625.28;5081406;28;20007;-87
2023/02/19 08:00:11;;;;;;;;;;;;;;;23.34;31.79;97606.69;5083223;28;20353;-86
2023/02/19 08:05:21;;;;;;;;;;;;;;;24.36;30.39;97595.41;5078073;28;20106;-86
2023/02/19 08:07:47;;;;;;;;;;;;;;;22.80;32.59;97611.28;5078166;28;20045;-86
2023/02/19 08:15:43;;;;;;;;;;;;;;;22.85;33.11;97596.78;5072172;28;20457;-87
2023/02/19 08:18:09;;;;;;;;;;;;;;;24.37;30.64;97593.38;5078435;28;19920;-86
2023/02/19 08:20:36;;;;;;;;;;;;;;;24.62;30.25;97580.13;5079068;28;20398;-86
2023/02/19 08:23:02;;;;;;;;;;;;;;;23.23;32.32;97578.19;5082560;28;19962;-86
2023/02/19 08:25:28;;;;;;;;;;;;;;;23.20;32.08;97584.66;5058030;28;19928;-86
2023/02/19 08:27:54;;;;;;;;;;;;;;;22.96;32.58;97578.50;5076602;28;19944;-85
2023/02/19 08:30:20;;;;;;;;;;;;;;;23.73;31.30;97572.84;5067226;28;19925;-86
2023/02/19 08:32:46;;;;;;;;;;;;;;;24.05;31.07;97578.28;5078415;28;19942;-86
2023/02/19 08:35:12;;;;;;;;;;;;;;;23.69;32.07;97574.94;5080202;28;20354;-89
2023/02/19 08:37:38;;;;;;;;;;;;;;;24.07;31.39;97569.44;5081542;28;19930;-86
2023/02/19 08:40:04;;;;;;;;;;;;;;;24.84;30.72;97571.84;5082680;28;20407;-87
2023/02/19 08:42:30;;;;;;;;;;;;;;;25.47;29.71;97574.53;5077719;28;19955;-86
2023/02/19 08:44:56;;;;;;;;;;;;;;;25.62;29.35;97575.59;5078180;28;20317;-87
2023/02/19 08:47:22;;;;;;;;;;;;;;;24.90;31.28;97577.69;5087333;28;20443;-86
2023/02/19 08:49:48;;;;;;;;;;;;;;;25.46;29.84;97575.78;5090707;28;19967;-85
2023/02/19 08:52:14;;;;;;;;;;;;;;;25.07;30.24;97574.28;5086556;28;19923;-86
2023/02/19 08:54:40;;;;;;;;;;;;;;;25.07;30.12;97581.91;5067997;28;19921;-86
2023/02/19 08:57:06;;;;;;;;;;;;;;;24.67;30.45;97582.38;5082572;28;19916;-88
2023/02/19 08:59:32;;;;;;;;;;;;;;;25.66;29.57;97581.88;5082000;28;20291;-86
2023/02/19 09:01:59;;;;;;;;;;;;;;;25.91;29.18;97572.50;5078585;28;19924;-85
2023/02/19 09:04:25;;;;;;;;;;;;;;;26.24;27.89;97572.88;5078283;28;19916;-88
2023/02/19 09:06:51;;;;;;;;;;;;;;;26.63;27.64;97575.72;5088598;28;19955;-86
2023/02/19 09:09:17;;;;;;;;;;;;;;;26.19;28.48;97573.47;5087349;28;19920;-85
2023/02/19 09:11:43;;;;;;;;;;;;;;;25.10;29.19;97567.75;5080167;28;20376;-88
2023/02/19 09:14:09;;;;;;;;;;;;;;;25.52;29.21;97576.75;5088332;28;19927;-85
2023/02/19 09:16:35;;;;;;;;;;;;;;;25.56;28.90;97577.41;5090958;28;19970;-85
2023/02/19 09:19:02;;;;;;;;;;;;;;;25.64;29.14;97581.53;5087605;28;19921;-87
2023/02/19 09:21:28;;;;;;;;;;;;;;;25.59;29.06;97576.50;5090225;28;19932;-87
2023/02/19 09:23:54;;;;;;;;;;;;;;;25.49;29.07;97574.84;5081398;28;19928;-85
2023/02/19 09:26:21;;;;;;;;;;;;;;;25.31;29.30;97583.88;5086087;28;20384;-87
2023/02/19 09:28:47;;;;;;;;;;;;;;;25.92;28.35;97566.44;5082202;28;19924;-87
2023/02/19 09:31:14;;;;;;;;;;;;;;;26.07;27.84;97561.81;5080252;28;19982;-87
2023/02/19 09:33:42;;;;;;;;;;;;;;;25.64;28.35;97577.94;5082805;28;19956;-88
2023/02/19 09:36:08;;;;;;;;;;;;;;;25.27;29.61;97580.41;5086549;28;19924;-87
2023/02/19 09:38:34;;;;;;;;;;;;;;;24.66;29.52;97580.03;5081464;28;19973;-88
2023/02/19 09:41:08;;;;;;;;;;;;;;;23.81;31.76;97584.59;5084899;28;19963;-86
2023/02/19 09:43:34;;;;;;;;;;;;;;;23.99;30.55;97579.28;5084975;28;19926;-87
2023/02/19 09:46:02;;;;;;;;;;;;;;;22.75;33.66;97587.41;5086740;28;19923;-86
2023/02/19 09:48:28;;;;;;;;;;;;;;;22.21;34.15;97589.84;5083361;28;19965;-86
2023/02/19 09:50:55;;;;;;;;;;;;;;;24.11;30.96;97589.75;5085948;28;19994;-86
2023/02/19 09:53:23;;;;;;;;;;;;;;;22.63;33.70;97596.50;5080880;28;19920;-86
2023/02/19 09:55:51;;;;;;;;;;;;;;;23.49;31.67;97591.13;5083823;28;19920;-84
2023/02/19 09:58:24;;;;;;;;;;;;;;;22.63;33.21;97596.50;5077130;28;21902;-84
2023/02/19 10:00:50;;;;;;;;;;;;;;;23.87;31.31;97597.66;5083715;28;19920;-85
2023/02/19 10:03:33;;;;;;;;;;;;;;;23.40;32.03;97590.16;5082198;28;19921;-85
2023/02/19 10:06:06;;;;;;;;;;;;;;;23.61;31.72;97595.19;5083704;28;19982;-87
2023/02/19 10:08:33;;;;;;;;;;;;;;;24.27;30.91;97595.28;5077314;28;19921;-85
2023/02/19 10:11:00;;;;;;;;;;;;;;;23.84;31.49;97601.34;5081614;28;19920;-85
2023/02/19 10:13:31;;;;;;;;;;;;;;;22.77;33.01;97609.34;5087525;28;20364;-85
2023/02/19 10:16:00;;;;;;;;;;;;;;;22.80;33.61;97622.50;5078292;28;20295;-84
2023/02/19 10:18:27;;;;;;;;;;;;;;;22.08;34.22;97610.53;5077283;28;19924;-85
2023/02/19 10:20:54;;;;;;;;;;;;;;;20.81;36.10;97613.63;5086790;28;19920;-85
2023/02/19 10:23:20;;;;;;;;;;;;;;;20.36;37.30;97610.34;5076697;28;19973;-85
2023/02/19 10:25:49;;;;;;;;;;;;;;;20.70;36.45;97612.22;5077020;28;20300;-86
2023/02/19 10:28:21;;;;;;;;;;;;;;;20.31;37.45;97612.78;5073570;28;19924;-86
2023/02/19 10:30:50;;;;;;;;;;;;;;;20.85;36.72;97614.34;5077965;28;19927;-85
2023/02/19 10:33:16;;;;;;;;;;;;;;;21.13;35.51;97613.91;5076063;28;19928;-86
2023/02/19 10:36:08;;;;;;;;;;;;;;;21.38;35.44;97618.28;5078382;28;19924;-85
2023/02/19 10:38:39;;;;;;;;;;;;;;;20.66;36.85;97617.84;5079511;28;19920;-83
2023/02/19 10:41:07;;;;;;;;;;;;;;;20.56;37.16;97611.22;5083832;28;19928;-85
2023/02/19 10:43:39;;;;;;;;;;;;;;;20.21;37.34;97624.88;5075833;28;19935;-86
2023/02/19 10:46:16;;;;;;;;;;;;;;;20.35;37.79;97617.09;5062607;28;19939;-86
2023/02/19 10:49:08;;;;;;;;;;;;;;;20.98;36.66;97623.69;5063361;28;19932;-85
2023/02/19 10:51:38;;;;;;;;;;;;;;;22.11;34.67;97626.41;5054264;28;19973;-85
2023/02/19 10:54:23;;;;;;;;;;;;;;;21.17;35.58;97623.00;5060370;28;19931;-85
2023/02/19 10:56:49;;;;;;;;;;;;;;;20.53;37.19;97631.59;5058925;28;20325;-85
2023/02/19 10:59:26;;;;;;;;;;;;;;;20.21;37.34;97636.03;5065558;28;20415;-85
2023/02/19 11:01:53;;;;;;;;;;;;;;;19.21;39.32;97643.88;5067898;28;19929;-85
2023/02/19 11:04:19;;;;;;;;;;;;;;;17.68;41.10;97662.66;5072042;28;19920;-85
2023/02/19 11:06:46;;;;;;;;;;;;;;;17.11;43.06;97673.03;5073656;28;19920;-86
2023/02/19 11:09:24;;;;;;;;;;;;;;;17.91;41.45;97674.09;5071219;28;19921;-86
2023/02/19 11:11:51;;;;;;;;;;;;;;;18.38;39.79;97675.47;5077952;28;19966;-86
2023/02/19 11:14:20;;;;;;;;;;;;;;;17.86;41.16;97680.06;5068449;28;19927;-85
2023/02/19 11:16:51;;;;;;;;;;;;;;;18.23;40.71;97676.72;5070809;28;19924;-85
2023/02/19 11:19:38;;;;;;;;;;;;;;;17.51;40.89;97690.44;5062083;28;19928;-86
2023/02/19 11:22:19;;;;;;;;;;;;;;;18.12;40.35;97689.88;5070193;28;19970;-86
2023/02/19 11:24:49;;;;;;;;;;;;;;;18.24;39.94;97688.63;5064893;28;19920;-85
2023/02/19 11:27:20;;;;;;;;;;;;;;;18.17;39.85;97688.66;5060404;28;20034;-86
2023/02/19 11:29:46;;;;;;;;;;;;;;;17.72;39.12;97702.31;5062169;28;20419;-85
2023/02/19 11:32:22;;;;;;;;;;;;;;;17.89;39.30;97695.94;5058357;28;19917;-86
2023/02/19 11:34:48;;;;;;;;;;;;;;;17.31;39.81;97698.41;5056249;28;19928;-86
2023/02/19 11:37:19;;;;;;;;;;;;;;;17.88;40.54;97702.66;5059435;28;19920;-86
2023/02/19 11:39:47;;;;;;;;;;;;;;;18.90;38.46;97700.59;5062142;28;20161;-85
2023/02/19 11:42:13;;;;;;;;;;;;;;;18.92;37.98;97709.31;5057777;28;20351;-87
2023/02/19 11:44:58;;;;;;;;;;;;;;;16.59;41.46;97726.47;5060483;28;20283;-86
2023/02/19 11:47:36;;;;;;;;;;;;;;;15.45;44.04;97731.84;5074273;28;19928;-86
2023/02/19 11:50:02;;;;;;;;;;;;;;;14.71;45.78;97743.03;5078593;28;20042;-86
2023/02/19 11:52:41;;;;;;;;;;;;;;;15.62;43.36;97742.22;5078365;28;20396;-85
2023/02/19 11:55:16;;;;;;;;;;;;;;;14.74;45.95;97741.47;5080111;28;19920;-86
2023/02/19 11:57:46;;;;;;;;;;;;;;;15.97;43.24;97739.66;5080159;28;19927;-87
2023/02/19 12:00:26;;;;;;;;;;;;;;;14.65;45.34;97754.78;5091109;28;19916;-87
2023/02/19 12:02:53;;;;;;;;;;;;;;;16.33;41.81;97751.69;5087194;28;20403;-85
2023/02/19 12:05:25;;;;;;;;;;;;;;;17.37;39.39;97752.28;5097500;28;19924;-87
2023/02/19 12:08:11;;;;;;;;;;;;;;;17.12;40.27;97757.06;5097479;28;19920;-86
2023/02/19 12:11:01;;;;;;;;;;;;;;;17.53;39.61;97769.34;5053115;28;20419;-86
2023/02/19 12:13:46;;;;;;;;;;;;;;;16.37;41.79;97777.41;5082087;28;19943;-86
2023/02/19 12:16:22;;;;;;;;;;;;;;;17.72;39.43;97782.03;5086413;28;20383;-85
2023/02/19 12:19:07;;;;;;;;;;;;;;;19.00;36.54;97778.41;5084197;28;20394;-86
2023/02/19 12:21:45;;;;;;;;;;;;;;;19.42;35.99;97777.31;5083533;28;19930;-86
2023/02/19 12:24:25;;;;;;;;;;;;;;;19.85;34.19;97775.75;5083796;28;19928;-86
2023/02/19 12:27:00;;;;;;;;;;;;;;;18.53;37.15;97796.53;5091387;28;19970;-86
2023/02/19 12:29:39;;;;;;;;;;;;;;;20.15;34.43;97794.56;5095073;28;19923;-86
2023/02/19 12:32:11;;;;;;;;;;;;;;;19.50;34.19;97809.50;5093732;28;19923;-86
2023/02/19 12:34:44;;;;;;;;;;;;;;;19.79;34.68;97807.28;5092939;28;19966;-86
2023/02/19 12:37:16;;;;;;;;;;;;;;;20.25;34.07;97816.00;5095389;28;19931;-86
2023/02/19 12:39:46;;;;;;;;;;;;;;;18.82;35.77;97822.22;5094877;28;19924;-86
2023/02/19 12:42:12;;;;;;;;;;;;;;;19.91;34.33;97813.09;5099147;28;19915;-86
2023/02/19 12:44:41;;;;;;;;;;;;;;;17.71;37.93;97819.34;5108219;28;20005;-85
2023/02/19 12:47:14;;;;;;;;;;;;;;;18.79;35.90;97817.47;5076066;28;20411;-85
2023/02/19 12:49:43;;;;;;;;;;;;;;;18.00;37.92;97823.66;5094717;28;20021;-86
2023/02/19 12:52:14;;;;;;;;;;;;;;;17.01;39.24;97823.56;5084963;28;19921;-87
2023/02/19 12:54:41;;;;;;;;;;;;;;;18.15;36.11;97825.22;5093733;28;19935;-88
2023/02/19 12:57:17;;;;;;;;;;;;;;;17.86;38.28;97823.66;5086193;28;19935;-87
2023/02/19 12:59:59;;;;;;;;;;;;;;;16.97;38.67;97835.84;5096999;28;19926;-90
2023/02/19 13:02:47;;;;;;;;;;;;;;;16.51;40.28;97847.59;5088886;28;20013;-86
2023/02/19 13:05:39;;;;;;;;;;;;;;;17.69;37.70;97841.16;5088678;28;19975;-87
2023/02/19 13:08:20;;;;;;;;;;;;;;;17.91;36.96;97839.94;5077648;28;19920;-87
2023/02/19 13:10:53;;;;;;;;;;;;;;;18.57;36.14;97833.47;5088618;28;19920;-87
2023/02/19 13:13:26;;;;;;;;;;;;;;;19.10;34.59;97840.75;5083956;28;20427;-88
2023/02/19 13:15:55;;;;;;;;;;;;;;;17.00;38.27;97841.41;5080551;28;19936;-89
2023/02/19 13:18:24;;;;;;;;;;;;;;;15.54;42.04;97835.44;5087834;28;19955;-84
2023/02/19 13:20:53;;;;;;;;;;;;;;;16.36;39.32;97828.50;5063423;28;19927;-89
2023/02/19 13:26:10;;;;;;;;;;;;;;;15.69;39.74;97869.56;5086817;28;19927;-87
2023/02/19 13:28:45;;;;;;;;;;;;;;;14.54;43.12;97877.00;5090198;28;20376;-87
2023/02/19 13:31:23;;;;;;;;;;;;;;;15.26;42.93;97862.84;5084694;28;19923;-87